createdAt,value
2022-08-02T00:00:55.660Z,99.90
2022-08-02T00:03:24.423Z,99.90
2022-08-02T00:05:53.720Z,99.90
2022-08-02T00:08:21.820Z,99.90
2022-08-02T00:10:48.996Z,99.90
2022-08-02T00:13:15.601Z,99.90
2022-08-02T00:15:42.277Z,99.90
2022-08-02T00:18:09.126Z,99.90
2022-08-02T00:20:35.778Z,99.90
2022-08-02T00:23:02.606Z,99.90
2022-08-02T00:25:29.401Z,99.90
2022-08-02T00:27:56.038Z,99.90
2022-08-02T00:30:22.653Z,99.90
2022-08-02T00:32:49.338Z,99.90
2022-08-02T00:35:15.977Z,99.90
2022-08-02T00:37:42.921Z,99.90
2022-08-02T00:40:10.940Z,99.90
2022-08-02T00:42:38.626Z,99.90
2022-08-02T00:45:05.910Z,99.90
2022-08-02T00:47:32.606Z,99.90
2022-08-02T00:49:59.270Z,99.90
2022-08-02T00:52:26.250Z,99.90
2022-08-02T00:54:52.876Z,99.90
2022-08-02T00:57:19.544Z,99.90
2022-08-02T00:59:46.128Z,99.90
2022-08-02T01:02:12.876Z,99.90
2022-08-02T01:04:39.708Z,99.90
2022-08-02T01:07:12.855Z,99.90
2022-08-02T01:09:44.494Z,99.90
2022-08-02T01:12:12.140Z,99.90
2022-08-02T01:14:42.110Z,99.90
2022-08-02T01:17:32.340Z,99.90
2022-08-02T01:20:33.115Z,99.90
2022-08-02T01:23:31.321Z,99.90
2022-08-02T01:26:06.944Z,99.90
2022-08-02T01:28:48.735Z,99.90
2022-08-02T01:31:38.683Z,99.90
2022-08-02T01:34:32.431Z,99.90
2022-08-02T01:37:03.650Z,99.90
2022-08-02T01:39:34.094Z,99.90
2022-08-02T01:42:02.945Z,99.90
2022-08-02T01:44:34.544Z,99.90
2022-08-02T01:47:06.525Z,99.90
2022-08-02T01:49:35.919Z,99.90
2022-08-02T01:52:22.528Z,99.90
2022-08-02T01:55:02.970Z,99.90
2022-08-02T01:57:45.625Z,99.90
2022-08-02T02:00:13.069Z,99.90
2022-08-02T02:02:43.830Z,99.90
2022-08-02T02:05:14.873Z,99.90
2022-08-02T02:07:43.581Z,99.90
2022-08-02T02:10:14.521Z,99.90
2022-08-02T02:12:44.164Z,99.90
2022-08-02T02:15:12.765Z,99.90
2022-08-02T02:17:50.563Z,99.90
2022-08-02T02:20:30.822Z,99.90
2022-08-02T02:22:58.886Z,99.90
2022-08-02T02:25:36.111Z,99.90
2022-08-02T02:28:24.838Z,99.90
2022-08-02T02:31:00.329Z,99.90
2022-08-02T02:33:30.587Z,99.90
2022-08-02T02:35:59.110Z,99.90
2022-08-02T02:38:28.411Z,99.90
2022-08-02T02:40:56.958Z,99.90
2022-08-02T02:43:27.973Z,99.90
2022-08-02T02:45:56.325Z,99.90
2022-08-02T02:48:23.460Z,99.90
2022-08-02T02:50:51.273Z,99.90
2022-08-02T02:53:19.546Z,99.90
2022-08-02T02:56:01.956Z,99.90
2022-08-02T02:58:31.093Z,99.90
2022-08-02T03:01:16.584Z,99.90
2022-08-02T03:03:45.648Z,99.90
2022-08-02T03:06:15.307Z,99.90
2022-08-02T03:08:43.078Z,99.90
2022-08-02T03:11:10.994Z,99.90
2022-08-02T03:13:38.865Z,99.90
2022-08-02T03:16:05.862Z,99.90
2022-08-02T03:18:37.986Z,99.90
2022-08-02T03:21:08.370Z,99.90
2022-08-02T03:23:35.533Z,99.90
2022-08-02T03:26:02.710Z,99.90
2022-08-02T03:28:29.754Z,99.90
2022-08-02T03:30:56.867Z,99.90
2022-08-02T03:33:25.547Z,99.90
2022-08-02T03:35:55.077Z,99.90
2022-08-02T03:38:24.057Z,99.90
2022-08-02T03:40:56.111Z,99.90
2022-08-02T03:43:23.749Z,99.90
2022-08-02T03:45:56.712Z,99.90
2022-08-02T03:48:31.806Z,99.90
2022-08-02T03:51:01.798Z,99.90
2022-08-02T03:53:28.893Z,99.90
2022-08-02T03:55:56.080Z,99.90
2022-08-02T03:58:24.189Z,99.90
2022-08-02T04:00:54.638Z,99.90
2022-08-02T04:03:21.646Z,99.90
2022-08-02T04:06:03.896Z,99.90
2022-08-02T04:08:37.644Z,99.90
2022-08-02T04:11:24.427Z,99.90
2022-08-02T04:13:51.788Z,99.90
2022-08-02T04:16:23.646Z,99.90
2022-08-02T04:18:57.908Z,99.90
2022-08-02T04:21:27.212Z,99.90
2022-08-02T04:24:18.645Z,99.90
2022-08-02T04:26:48.808Z,99.90
2022-08-02T04:29:18.357Z,99.90
2022-08-02T04:31:45.744Z,99.90
2022-08-02T04:34:15.433Z,99.90
2022-08-02T04:36:42.970Z,99.90
2022-08-02T04:39:09.763Z,99.90
2022-08-02T04:41:43.952Z,99.90
2022-08-02T04:44:11.349Z,99.90
2022-08-02T04:46:38.628Z,99.90
2022-08-02T04:49:05.733Z,99.90
2022-08-02T04:51:40.381Z,99.90
2022-08-02T04:54:09.972Z,99.90
2022-08-02T04:56:37.976Z,99.90
2022-08-02T04:59:05.455Z,99.90
2022-08-02T05:01:32.385Z,99.90
2022-08-02T05:03:59.363Z,99.90
2022-08-02T05:06:25.983Z,99.90
2022-08-02T05:08:53.602Z,99.90
2022-08-02T05:11:34.662Z,99.90
2022-08-02T05:14:04.926Z,99.90
2022-08-02T05:16:32.288Z,99.90
2022-08-02T05:19:02.704Z,99.90
2022-08-02T05:21:30.218Z,99.90
2022-08-02T05:23:56.875Z,99.90
2022-08-02T05:26:23.517Z,99.90
2022-08-02T05:28:50.133Z,99.90
2022-08-02T05:31:16.726Z,99.90
2022-08-02T05:33:43.304Z,99.90
2022-08-02T05:36:10.003Z,99.90
2022-08-02T05:38:37.918Z,99.90
2022-08-02T05:41:05.762Z,99.90
2022-08-02T05:43:32.989Z,99.90
2022-08-02T05:45:59.737Z,99.90
2022-08-02T05:48:31.233Z,99.90
2022-08-02T05:51:05.762Z,99.90
2022-08-02T05:53:49.667Z,99.90
2022-08-02T05:56:33.290Z,99.90
2022-08-02T05:59:04.178Z,99.90
2022-08-02T06:01:37.790Z,99.90
2022-08-02T06:04:09.534Z,99.90
2022-08-02T06:06:37.679Z,99.90
2022-08-02T06:09:10.166Z,99.90
2022-08-02T06:11:39.902Z,99.90
2022-08-02T06:14:07.686Z,99.90
2022-08-02T06:16:36.862Z,99.90
2022-08-02T06:19:09.606Z,99.90
2022-08-02T06:22:31.968Z,99.90
2022-08-02T06:24:26.328Z,99.90
2022-08-02T06:26:55.219Z,99.90
2022-08-02T06:29:23.613Z,99.90
2022-08-02T06:31:53.148Z,99.90
2022-08-02T06:34:19.750Z,99.90
2022-08-02T06:36:55.333Z,99.90
2022-08-02T06:39:34.430Z,99.90
2022-08-02T06:42:06.488Z,99.90
2022-08-02T06:44:53.137Z,99.90
2022-08-02T06:47:20.981Z,99.90
2022-08-02T06:49:52.303Z,99.90
2022-08-02T06:52:34.044Z,99.90
2022-08-02T06:55:02.602Z,99.90
2022-08-02T06:57:30.225Z,99.90
2022-08-02T06:59:58.261Z,99.90
2022-08-02T07:02:24.933Z,99.80
2022-08-02T07:04:51.597Z,98.00
2022-08-02T07:07:18.468Z,96.60
2022-08-02T07:09:56.214Z,94.80
2022-08-02T07:12:28.690Z,92.50
2022-08-02T07:14:55.291Z,90.70
2022-08-02T07:17:21.986Z,89.60
2022-08-02T07:19:48.615Z,87.50
2022-08-02T07:22:15.634Z,86.10
2022-08-02T07:24:42.569Z,85.40
2022-08-02T07:27:11.638Z,84.00
2022-08-02T07:29:45.057Z,83.90
2022-08-02T07:32:13.193Z,82.00
2022-08-02T07:34:40.146Z,81.00
2022-08-02T07:37:10.509Z,81.30
2022-08-02T07:39:51.353Z,80.30
2022-08-02T07:42:18.864Z,79.90
2022-08-02T07:44:49.146Z,78.60
2022-08-02T07:47:16.464Z,78.60
2022-08-02T07:49:43.045Z,78.80
2022-08-02T07:52:10.516Z,79.40
2022-08-02T07:54:37.372Z,78.60
2022-08-02T07:57:04.315Z,78.10
2022-08-02T07:59:31.203Z,78.70
2022-08-02T08:01:57.911Z,79.90
2022-08-02T08:04:24.696Z,78.60
2022-08-02T08:06:52.667Z,78.40
2022-08-02T08:09:19.922Z,76.80
2022-08-02T08:11:46.598Z,77.20
2022-08-02T08:14:16.906Z,76.60
2022-08-02T08:16:44.117Z,76.50
2022-08-02T08:19:10.777Z,77.10
2022-08-02T08:21:37.374Z,77.70
2022-08-02T08:24:04.681Z,77.20
2022-08-02T08:26:31.422Z,76.10
2022-08-02T08:28:58.034Z,76.80
2022-08-02T08:31:24.632Z,76.70
2022-08-02T08:33:51.422Z,77.50
2022-08-02T08:36:18.114Z,75.00
2022-08-02T08:38:45.093Z,74.20
2022-08-02T08:41:11.733Z,73.90
2022-08-02T08:43:38.419Z,70.70
2022-08-02T08:46:06.471Z,70.90
2022-08-02T08:48:37.378Z,71.20
2022-08-02T08:51:23.216Z,66.50
2022-08-02T08:53:54.058Z,68.40
2022-08-02T08:56:20.882Z,69.80
2022-08-02T08:58:47.652Z,70.00
2022-08-02T09:01:16.618Z,68.80
2022-08-02T09:03:44.395Z,69.90
2022-08-02T09:06:11.025Z,70.60
2022-08-02T09:08:37.738Z,72.20
2022-08-02T09:11:14.202Z,70.50
2022-08-02T09:13:58.829Z,69.60
2022-08-02T09:16:37.401Z,68.70
2022-08-02T09:19:25.293Z,69.10
2022-08-02T09:22:01.143Z,68.60
2022-08-02T09:24:27.837Z,69.00
2022-08-02T09:26:58.722Z,70.20
2022-08-02T09:29:26.170Z,67.60
2022-08-02T09:32:02.944Z,68.50
2022-08-02T09:34:49.950Z,66.10
2022-08-02T09:37:24.766Z,66.30
2022-08-02T09:39:51.516Z,65.90
2022-08-02T09:42:25.105Z,65.10
2022-08-02T09:45:00.638Z,66.30
2022-08-02T09:47:28.985Z,68.90
2022-08-02T09:49:58.382Z,67.50
2022-08-02T09:52:43.225Z,67.10
2022-08-02T09:55:11.733Z,67.30
2022-08-02T09:57:38.479Z,67.50
2022-08-02T10:00:15.036Z,69.10
2022-08-02T10:03:07.710Z,68.60
2022-08-02T10:05:56.192Z,69.70
2022-08-02T10:08:32.887Z,70.80
2022-08-02T10:11:03.482Z,71.30
2022-08-02T10:13:35.730Z,71.40
2022-08-02T10:16:03.264Z,70.00
2022-08-02T10:18:39.855Z,70.40
2022-08-02T10:21:30.671Z,69.50
2022-08-02T10:24:05.366Z,71.10
2022-08-02T10:26:33.021Z,70.80
2022-08-02T10:28:59.682Z,68.60
2022-08-02T10:31:33.433Z,72.00
2022-08-02T10:34:03.023Z,73.20
2022-08-02T10:36:33.655Z,69.40
2022-08-02T10:39:01.862Z,69.60
2022-08-02T10:41:46.913Z,69.40
2022-08-02T10:44:25.022Z,69.70
2022-08-02T10:46:52.552Z,71.30
2022-08-02T10:49:39.280Z,69.80
2022-08-02T10:52:08.308Z,69.60
2022-08-02T10:54:38.479Z,69.50
2022-08-02T10:57:16.139Z,70.80
2022-08-02T10:59:43.709Z,71.90
2022-08-02T11:02:11.281Z,72.80
2022-08-02T11:04:43.903Z,72.70
2022-08-02T11:07:19.273Z,72.80
2022-08-02T11:09:48.486Z,74.30
2022-08-02T11:12:20.363Z,73.20
2022-08-02T11:15:00.034Z,72.20
2022-08-02T11:17:28.900Z,72.60
2022-08-02T11:20:10.826Z,71.20
2022-08-02T11:22:38.807Z,70.50
2022-08-02T11:25:23.780Z,68.60
2022-08-02T11:27:53.340Z,69.50
2022-08-02T11:30:26.682Z,69.30
2022-08-02T11:32:58.470Z,69.30
2022-08-02T11:35:32.861Z,69.90
2022-08-02T11:38:19.185Z,69.60
2022-08-02T11:40:47.667Z,70.60
2022-08-02T11:43:23.358Z,70.90
2022-08-02T11:45:53.919Z,71.70
2022-08-02T11:48:50.143Z,72.70
2022-08-02T11:51:17.977Z,74.20
2022-08-02T11:53:53.390Z,73.40
2022-08-02T11:56:28.335Z,73.90
2022-08-02T11:59:21.837Z,75.00
2022-08-02T12:01:48.943Z,75.50
2022-08-02T12:04:22.676Z,75.80
2022-08-02T12:06:56.137Z,76.50
2022-08-02T12:09:23.555Z,77.00
2022-08-02T12:11:51.005Z,78.50
2022-08-02T12:14:18.204Z,78.40
2022-08-02T12:17:03.912Z,78.90
2022-08-02T12:19:30.602Z,80.80
2022-08-02T12:22:18.415Z,81.20
2022-08-02T12:24:50.871Z,80.00
2022-08-02T12:27:43.430Z,80.10
2022-08-02T12:30:12.194Z,80.60
2022-08-02T12:32:40.129Z,81.30
2022-08-02T12:35:07.095Z,81.10
2022-08-02T12:37:34.614Z,81.60
2022-08-02T12:40:25.651Z,80.70
2022-08-02T12:42:56.333Z,81.30
2022-08-02T12:45:23.407Z,82.00
2022-08-02T12:47:53.908Z,81.30
2022-08-02T12:50:29.938Z,81.00
2022-08-02T12:53:14.941Z,81.90
2022-08-02T12:56:00.678Z,82.00
2022-08-02T12:58:29.569Z,81.80
2022-08-02T13:01:01.246Z,81.90
2022-08-02T13:04:11.466Z,81.80
2022-08-02T13:06:42.275Z,81.60
2022-08-02T13:09:02.425Z,81.30
2022-08-02T13:11:29.436Z,82.00
2022-08-02T13:13:56.145Z,83.10
2022-08-02T13:16:30.729Z,82.80
2022-08-02T13:18:58.378Z,82.50
2022-08-02T13:21:41.306Z,83.50
2022-08-02T13:24:32.766Z,82.20
2022-08-02T13:27:05.206Z,81.40
2022-08-02T13:29:36.361Z,82.40
2022-08-02T13:32:03.294Z,82.90
2022-08-02T13:34:30.003Z,83.90
2022-08-02T13:36:56.594Z,84.40
2022-08-02T13:39:23.206Z,82.10
2022-08-02T13:41:49.938Z,81.90
2022-08-02T13:44:16.582Z,81.70
2022-08-02T13:46:45.301Z,81.50
2022-08-02T13:49:18.943Z,82.30
2022-08-02T13:51:49.884Z,82.60
2022-08-02T13:54:17.104Z,82.10
2022-08-02T13:56:43.992Z,83.90
2022-08-02T13:59:21.999Z,82.80
2022-08-02T14:01:58.647Z,83.50
2022-08-02T14:04:25.896Z,84.70
2022-08-02T14:06:52.915Z,84.20
2022-08-02T14:09:19.791Z,83.90
2022-08-02T14:11:47.242Z,84.40
2022-08-02T14:14:16.457Z,85.00
2022-08-02T14:16:47.079Z,84.90
2022-08-02T14:19:16.609Z,84.90
2022-08-02T14:21:48.621Z,84.90
2022-08-02T14:24:20.601Z,83.90
2022-08-02T14:26:49.766Z,84.70
2022-08-02T14:29:17.035Z,84.90
2022-08-02T14:31:44.975Z,85.10
2022-08-02T14:34:12.720Z,86.70
2022-08-02T14:36:39.369Z,86.40
2022-08-02T14:39:06.252Z,86.10
2022-08-02T14:41:58.311Z,87.10
2022-08-02T14:44:23.254Z,86.70
2022-08-02T14:46:51.516Z,88.00
2022-08-02T14:49:24.795Z,88.70
2022-08-02T14:51:57.133Z,87.50
2022-08-02T14:54:31.010Z,87.90
2022-08-02T14:57:00.036Z,87.70
2022-08-02T14:59:27.269Z,86.90
2022-08-02T15:01:54.141Z,89.10
2022-08-02T15:04:20.855Z,87.90
2022-08-02T15:06:47.530Z,87.40
2022-08-02T15:09:14.294Z,86.30
2022-08-02T15:11:47.553Z,85.80
2022-08-02T15:14:16.165Z,85.70
2022-08-02T15:16:56.457Z,85.00
2022-08-02T15:19:23.596Z,85.20
2022-08-02T15:21:54.581Z,85.70
2022-08-02T15:24:23.874Z,85.10
2022-08-02T15:26:50.781Z,85.20
2022-08-02T15:29:18.317Z,87.10
2022-08-02T15:31:45.093Z,86.70
2022-08-02T15:34:11.764Z,86.70
2022-08-02T15:36:38.412Z,87.20
2022-08-02T15:39:05.315Z,87.70
2022-08-02T15:41:32.367Z,87.60
2022-08-02T15:44:01.583Z,88.00
2022-08-02T15:46:32.176Z,88.20
2022-08-02T15:48:59.923Z,89.10
2022-08-02T15:51:27.066Z,89.10
2022-08-02T15:53:53.791Z,89.10
2022-08-02T15:56:23.873Z,89.10
2022-08-02T15:58:51.815Z,90.10
2022-08-02T16:01:23.847Z,90.00
2022-08-02T16:03:50.698Z,90.10
2022-08-02T16:06:17.463Z,90.20
2022-08-02T16:08:53.439Z,90.10
2022-08-02T16:11:22.288Z,90.30
2022-08-02T16:13:55.305Z,90.70
2022-08-02T16:16:23.917Z,90.80
2022-08-02T16:18:50.859Z,90.70
2022-08-02T16:21:17.583Z,90.70
2022-08-02T16:23:58.719Z,90.90
2022-08-02T16:26:34.065Z,91.20
2022-08-02T16:29:02.572Z,91.30
2022-08-02T16:31:30.111Z,91.70
2022-08-02T16:33:57.395Z,91.70
2022-08-02T16:36:25.345Z,91.60
2022-08-02T16:38:53.609Z,91.70
2022-08-02T16:41:20.827Z,91.60
2022-08-02T16:43:47.654Z,92.20
2022-08-02T16:46:14.697Z,91.50
2022-08-02T16:48:42.113Z,91.50
2022-08-02T16:51:18.689Z,92.00
2022-08-02T16:53:59.247Z,92.10
2022-08-02T16:56:28.135Z,91.80
2022-08-02T16:58:55.058Z,92.10
2022-08-02T17:01:27.068Z,91.70
2022-08-02T17:03:56.468Z,92.00
2022-08-02T17:06:26.389Z,92.20
2022-08-02T17:08:56.385Z,92.60
2022-08-02T17:11:23.935Z,92.30
2022-08-02T17:13:51.469Z,92.60
2022-08-02T17:16:20.906Z,92.10
2022-08-02T17:18:53.758Z,92.20
2022-08-02T17:21:20.406Z,92.20
2022-08-02T17:24:04.854Z,92.60
2022-08-02T17:26:34.124Z,93.20
2022-08-02T17:29:16.078Z,93.80
2022-08-02T17:32:02.396Z,93.40
2022-08-02T17:34:31.399Z,93.50
2022-08-02T17:36:57.999Z,93.50
2022-08-02T17:39:24.622Z,93.90
2022-08-02T17:42:00.914Z,93.60
2022-08-02T17:44:37.781Z,94.30
2022-08-02T17:47:11.743Z,94.60
2022-08-02T17:49:43.044Z,94.90
2022-08-02T17:52:51.738Z,95.30
2022-08-02T17:55:03.405Z,95.60
2022-08-02T17:57:30.712Z,95.90
2022-08-02T18:00:17.970Z,96.20
2022-08-02T18:02:52.618Z,96.60
2022-08-02T18:05:21.754Z,96.90
2022-08-02T18:07:49.512Z,97.20
2022-08-02T18:10:18.623Z,97.00
2022-08-02T18:12:45.909Z,97.50
2022-08-02T18:15:14.736Z,97.40
2022-08-02T18:17:42.024Z,97.20
2022-08-02T18:20:28.357Z,97.40
2022-08-02T18:22:55.700Z,97.50
2022-08-02T18:25:37.415Z,97.80
2022-08-02T18:28:10.743Z,98.20
2022-08-02T18:30:37.385Z,98.40
2022-08-02T18:33:57.053Z,98.60
2022-08-02T18:35:52.476Z,99.00
2022-08-02T18:38:22.503Z,99.40
2022-08-02T18:40:51.109Z,99.50
2022-08-02T18:43:18.726Z,99.40
2022-08-02T18:46:06.787Z,99.70
2022-08-02T18:48:37.358Z,99.90
2022-08-02T18:51:06.386Z,99.90
2022-08-02T18:53:41.911Z,99.90
2022-08-02T18:56:19.883Z,99.90
2022-08-02T18:58:55.797Z,99.90
2022-08-02T19:01:32.158Z,99.90
2022-08-02T19:04:01.432Z,99.90
2022-08-02T19:06:29.104Z,99.90
2022-08-02T19:09:05.415Z,99.90
2022-08-02T19:11:37.227Z,99.90
2022-08-02T19:14:04.166Z,99.90
2022-08-02T19:16:36.887Z,99.90
2022-08-02T19:19:05.773Z,99.90
2022-08-02T19:22:18.904Z,99.90
2022-08-02T19:24:19.365Z,99.90
2022-08-02T19:26:51.641Z,99.90
2022-08-02T19:29:43.454Z,99.90
2022-08-02T19:32:08.629Z,99.90
2022-08-02T19:34:55.737Z,99.90
2022-08-02T19:37:22.387Z,99.90
2022-08-02T19:39:49.014Z,99.90
2022-08-02T19:42:16.885Z,99.90
2022-08-02T19:44:45.675Z,99.90
2022-08-02T19:47:19.364Z,99.90
2022-08-02T19:49:48.832Z,99.90
2022-08-02T19:52:21.652Z,99.90
2022-08-02T19:57:39.001Z,99.90
2022-08-02T20:00:11.386Z,99.90
2022-08-02T20:02:38.383Z,99.90
2022-08-02T20:05:16.442Z,99.90
2022-08-02T20:07:56.152Z,99.90
2022-08-02T20:10:24.712Z,99.90
2022-08-02T20:12:53.503Z,99.90
2022-08-02T20:15:20.453Z,99.90
2022-08-02T20:17:49.170Z,99.90
2022-08-02T20:20:17.333Z,99.90
2022-08-02T20:25:54.221Z,99.90
2022-08-02T20:28:21.954Z,99.90
2022-08-02T20:30:48.833Z,99.90
2022-08-02T20:33:20.989Z,99.90
2022-08-02T20:35:48.418Z,99.90
2022-08-02T20:38:16.322Z,99.90
2022-08-02T20:40:43.381Z,99.90
2022-08-02T20:43:10.544Z,99.90
2022-08-02T20:45:37.197Z,99.90
2022-08-02T20:48:04.074Z,99.90
2022-08-02T20:50:49.250Z,99.90
2022-08-02T20:53:23.594Z,99.90
2022-08-02T20:55:54.022Z,99.90
2022-08-02T21:01:08.421Z,99.90
2022-08-02T21:03:39.070Z,99.90
2022-08-02T21:06:11.261Z,99.90
2022-08-02T21:08:41.963Z,99.90
2022-08-02T21:11:14.029Z,99.90
2022-08-02T21:13:46.442Z,99.90
2022-08-02T21:16:18.337Z,99.90
2022-08-02T21:18:49.019Z,99.90
2022-08-02T21:21:16.622Z,99.90
2022-08-02T21:23:48.659Z,99.90
2022-08-02T21:26:27.950Z,99.90
2022-08-02T21:28:55.585Z,99.90
2022-08-02T21:31:22.295Z,99.90
2022-08-02T21:33:58.632Z,99.90
2022-08-02T21:36:33.134Z,99.90
2022-08-02T21:39:05.948Z,99.90
2022-08-02T21:41:38.544Z,99.90
2022-08-02T21:44:08.495Z,99.90
2022-08-02T21:46:35.126Z,99.90
2022-08-02T21:49:02.183Z,99.90
2022-08-02T21:51:29.059Z,99.90
2022-08-02T21:54:18.574Z,99.90
2022-08-02T21:56:48.461Z,99.90
2022-08-02T21:59:17.298Z,99.90
2022-08-02T22:01:52.924Z,99.90
2022-08-02T22:04:20.871Z,99.90
2022-08-02T22:06:49.064Z,99.90
2022-08-02T22:09:17.645Z,99.90
2022-08-02T22:12:05.177Z,99.90
2022-08-02T22:14:37.301Z,99.90
2022-08-02T22:17:08.631Z,99.90
2022-08-02T22:19:36.326Z,99.90
2022-08-02T22:22:03.029Z,99.90
2022-08-02T22:27:16.592Z,99.90
2022-08-02T22:29:46.537Z,99.90
2022-08-02T22:34:59.920Z,99.90
2022-08-02T22:38:16.536Z,99.90
2022-08-02T22:40:13.942Z,99.90
2022-08-02T22:42:40.538Z,99.90
2022-08-02T22:45:09.484Z,99.90
2022-08-02T22:47:38.821Z,99.90
2022-08-02T22:50:17.760Z,99.90
2022-08-02T22:52:46.909Z,99.90
2022-08-02T22:55:17.509Z,99.90
2022-08-02T22:57:56.656Z,99.90
2022-08-02T22:58:53.721Z,99.90
2022-08-02T22:59:05.754Z,99.90
2022-08-02T22:59:05.857Z,99.90
2022-08-02T22:59:12.093Z,99.90
2022-08-02T22:59:12.690Z,99.90
2022-08-02T23:00:25.368Z,99.90
2022-08-02T23:02:52.398Z,99.90
2022-08-02T23:05:20.772Z,99.90
2022-08-02T23:07:47.448Z,99.90
2022-08-02T23:10:14.276Z,99.90
2022-08-02T23:12:40.914Z,99.90
2022-08-02T23:15:08.204Z,99.90
2022-08-02T23:17:53.253Z,99.90
2022-08-02T23:20:19.867Z,99.90
2022-08-02T23:22:46.504Z,99.90
2022-08-02T23:25:14.476Z,99.90
2022-08-02T23:27:50.675Z,99.90
2022-08-02T23:30:18.321Z,99.90
2022-08-02T23:32:46.904Z,99.90
2022-08-02T23:35:17.242Z,99.90
2022-08-02T23:37:59.916Z,99.90
2022-08-02T23:40:38.829Z,99.90
2022-08-02T23:43:14.010Z,99.90
2022-08-02T23:45:42.779Z,99.90
2022-08-02T23:48:09.403Z,99.90
2022-08-02T23:50:36.013Z,99.90
2022-08-02T23:53:02.604Z,99.90
2022-08-02T23:55:29.329Z,99.90
2022-08-02T23:57:55.897Z,99.90
